sensor_id;sensor_type;location;lat;lon;timestamp;P1;durP1;ratioP1;P2;durP2;ratioP2
54539;SDS011;40438;52.992;18.604;2023-09-19T00:00:29;20.70;;;11.27;;
54539;SDS011;40438;52.992;18.604;2023-09-19T00:02:56;15.27;;;10.77;;
54539;SDS011;40438;52.992;18.604;2023-09-19T00:05:23;19.08;;;11.02;;
54539;SDS011;40438;52.992;18.604;2023-09-19T00:07:48;19.10;;;10.70;;
54539;SDS011;40438;52.992;18.604;2023-09-19T00:10:15;18.73;;;11.38;;
54539;SDS011;40438;52.992;18.604;2023-09-19T00:12:42;21.25;;;11.85;;
54539;SDS011;40438;52.992;18.604;2023-09-19T00:15:08;16.95;;;11.02;;
54539;SDS011;40438;52.992;18.604;2023-09-19T00:17:34;18.85;;;10.77;;
54539;SDS011;40438;52.992;18.604;2023-09-19T00:20:02;19.77;;;12.20;;
54539;SDS011;40438;52.992;18.604;2023-09-19T00:22:28;16.75;;;10.48;;
54539;SDS011;40438;52.992;18.604;2023-09-19T00:24:53;16.02;;;10.95;;
54539;SDS011;40438;52.992;18.604;2023-09-19T00:27:19;21.33;;;11.50;;
54539;SDS011;40438;52.992;18.604;2023-09-19T00:29:45;16.65;;;11.85;;
54539;SDS011;40438;52.992;18.604;2023-09-19T00:32:11;17.70;;;11.52;;
54539;SDS011;40438;52.992;18.604;2023-09-19T00:34:36;18.17;;;10.43;;
54539;SDS011;40438;52.992;18.604;2023-09-19T00:37:04;17.92;;;11.80;;
54539;SDS011;40438;52.992;18.604;2023-09-19T00:39:29;24.08;;;12.10;;
54539;SDS011;40438;52.992;18.604;2023-09-19T00:41:55;16.77;;;10.98;;
54539;SDS011;40438;52.992;18.604;2023-09-19T00:44:21;14.90;;;10.90;;
54539;SDS011;40438;52.992;18.604;2023-09-19T00:46:47;14.77;;;10.55;;
54539;SDS011;40438;52.992;18.604;2023-09-19T00:49:13;20.35;;;11.80;;
54539;SDS011;40438;52.992;18.604;2023-09-19T00:51:39;17.10;;;11.52;;
54539;SDS011;40438;52.992;18.604;2023-09-19T00:54:07;18.13;;;11.15;;
54539;SDS011;40438;52.992;18.604;2023-09-19T00:56:34;21.23;;;11.55;;
54539;SDS011;40438;52.992;18.604;2023-09-19T00:59:00;17.35;;;11.65;;
54539;SDS011;40438;52.992;18.604;2023-09-19T01:01:27;18.40;;;11.45;;
54539;SDS011;40438;52.992;18.604;2023-09-19T01:03:53;18.88;;;11.38;;
54539;SDS011;40438;52.992;18.604;2023-09-19T01:06:18;17.90;;;11.55;;
54539;SDS011;40438;52.992;18.604;2023-09-19T01:08:45;19.20;;;11.13;;
54539;SDS011;40438;52.992;18.604;2023-09-19T01:11:13;21.67;;;11.57;;
54539;SDS011;40438;52.992;18.604;2023-09-19T01:13:55;19.42;;;12.13;;
54539;SDS011;40438;52.992;18.604;2023-09-19T01:16:33;18.70;;;11.93;;
54539;SDS011;40438;52.992;18.604;2023-09-19T01:19:07;19.08;;;11.68;;
54539;SDS011;40438;52.992;18.604;2023-09-19T01:21:57;18.83;;;12.83;;
54539;SDS011;40438;52.992;18.604;2023-09-19T01:24:54;19.27;;;12.70;;
54539;SDS011;40438;52.992;18.604;2023-09-19T01:27:47;19.13;;;12.00;;
54539;SDS011;40438;52.992;18.604;2023-09-19T01:30:31;19.02;;;13.02;;
54539;SDS011;40438;52.992;18.604;2023-09-19T01:33:02;20.95;;;12.38;;
54539;SDS011;40438;52.992;18.604;2023-09-19T01:35:28;21.27;;;12.63;;
54539;SDS011;40438;52.992;18.604;2023-09-19T01:37:54;18.38;;;12.05;;
54539;SDS011;40438;52.992;18.604;2023-09-19T01:40:20;20.85;;;12.48;;
54539;SDS011;40438;52.992;18.604;2023-09-19T01:42:48;20.15;;;11.63;;
54539;SDS011;40438;52.992;18.604;2023-09-19T01:45:21;25.10;;;12.68;;
54539;SDS011;40438;52.992;18.604;2023-09-19T01:47:54;20.52;;;12.43;;
54539;SDS011;40438;52.992;18.604;2023-09-19T01:50:22;20.38;;;13.02;;
54539;SDS011;40438;52.992;18.604;2023-09-19T01:52:57;21.77;;;12.77;;
54539;SDS011;40438;52.992;18.604;2023-09-19T01:55:27;17.20;;;12.07;;
54539;SDS011;40438;52.992;18.604;2023-09-19T01:58:00;17.48;;;12.23;;
54539;SDS011;40438;52.992;18.604;2023-09-19T02:00:32;24.20;;;12.98;;
54539;SDS011;40438;52.992;18.604;2023-09-19T02:03:00;19.13;;;12.82;;
54539;SDS011;40438;52.992;18.604;2023-09-19T02:05:27;23.30;;;12.82;;
54539;SDS011;40438;52.992;18.604;2023-09-19T02:07:53;18.77;;;12.95;;
54539;SDS011;40438;52.992;18.604;2023-09-19T02:10:19;19.45;;;12.45;;
54539;SDS011;40438;52.992;18.604;2023-09-19T02:12:45;24.30;;;13.27;;
54539;SDS011;40438;52.992;18.604;2023-09-19T02:15:12;17.25;;;12.68;;
54539;SDS011;40438;52.992;18.604;2023-09-19T02:17:39;23.23;;;12.68;;
54539;SDS011;40438;52.992;18.604;2023-09-19T02:20:06;20.15;;;13.07;;
54539;SDS011;40438;52.992;18.604;2023-09-19T02:22:33;24.67;;;12.50;;
54539;SDS011;40438;52.992;18.604;2023-09-19T02:24:58;18.42;;;12.40;;
54539;SDS011;40438;52.992;18.604;2023-09-19T02:27:24;23.13;;;13.00;;
54539;SDS011;40438;52.992;18.604;2023-09-19T02:29:51;19.83;;;12.85;;
54539;SDS011;40438;52.992;18.604;2023-09-19T02:32:16;21.10;;;12.23;;
54539;SDS011;40438;52.992;18.604;2023-09-19T02:34:42;17.42;;;12.40;;
54539;SDS011;40438;52.992;18.604;2023-09-19T02:37:09;21.52;;;11.55;;
54539;SDS011;40438;52.992;18.604;2023-09-19T02:39:35;18.17;;;10.80;;
54539;SDS011;40438;52.992;18.604;2023-09-19T02:42:01;18.25;;;11.73;;
54539;SDS011;40438;52.992;18.604;2023-09-19T02:44:27;18.63;;;11.30;;
54539;SDS011;40438;52.992;18.604;2023-09-19T02:46:53;17.50;;;10.77;;
54539;SDS011;40438;52.992;18.604;2023-09-19T02:49:19;14.32;;;9.68;;
54539;SDS011;40438;52.992;18.604;2023-09-19T02:51:44;18.98;;;10.35;;
54539;SDS011;40438;52.992;18.604;2023-09-19T02:54:11;17.30;;;11.05;;
54539;SDS011;40438;52.992;18.604;2023-09-19T02:56:37;16.70;;;10.40;;
54539;SDS011;40438;52.992;18.604;2023-09-19T02:59:03;16.02;;;9.80;;
54539;SDS011;40438;52.992;18.604;2023-09-19T03:01:29;19.27;;;9.95;;
54539;SDS011;40438;52.992;18.604;2023-09-19T03:03:55;15.02;;;9.70;;
54539;SDS011;40438;52.992;18.604;2023-09-19T03:06:21;14.38;;;9.77;;
54539;SDS011;40438;52.992;18.604;2023-09-19T03:08:47;13.23;;;9.65;;
54539;SDS011;40438;52.992;18.604;2023-09-19T03:11:14;14.77;;;10.00;;
54539;SDS011;40438;52.992;18.604;2023-09-19T03:13:42;15.38;;;10.18;;
54539;SDS011;40438;52.992;18.604;2023-09-19T03:16:08;13.05;;;9.20;;
54539;SDS011;40438;52.992;18.604;2023-09-19T03:18:34;16.73;;;9.50;;
54539;SDS011;40438;52.992;18.604;2023-09-19T03:21:01;13.98;;;9.05;;
54539;SDS011;40438;52.992;18.604;2023-09-19T03:23:28;15.63;;;8.77;;
54539;SDS011;40438;52.992;18.604;2023-09-19T03:25:55;10.20;;;7.72;;
54539;SDS011;40438;52.992;18.604;2023-09-19T03:28:23;12.00;;;7.78;;
54539;SDS011;40438;52.992;18.604;2023-09-19T03:30:57;12.60;;;7.53;;
54539;SDS011;40438;52.992;18.604;2023-09-19T03:33:27;11.48;;;7.05;;
54539;SDS011;40438;52.992;18.604;2023-09-19T03:35:53;14.25;;;7.57;;
54539;SDS011;40438;52.992;18.604;2023-09-19T03:38:19;13.25;;;7.50;;
54539;SDS011;40438;52.992;18.604;2023-09-19T03:40:45;11.95;;;7.35;;
54539;SDS011;40438;52.992;18.604;2023-09-19T03:43:11;11.07;;;7.55;;
54539;SDS011;40438;52.992;18.604;2023-09-19T03:45:39;15.80;;;7.78;;
54539;SDS011;40438;52.992;18.604;2023-09-19T03:48:08;16.98;;;7.38;;
54539;SDS011;40438;52.992;18.604;2023-09-19T03:50:37;9.25;;;6.95;;
54539;SDS011;40438;52.992;18.604;2023-09-19T03:53:03;15.43;;;7.25;;
54539;SDS011;40438;52.992;18.604;2023-09-19T03:55:29;15.48;;;6.88;;
54539;SDS011;40438;52.992;18.604;2023-09-19T03:57:55;14.82;;;7.05;;
54539;SDS011;40438;52.992;18.604;2023-09-19T04:00:21;11.65;;;7.82;;
54539;SDS011;40438;52.992;18.604;2023-09-19T04:02:52;13.73;;;7.45;;
54539;SDS011;40438;52.992;18.604;2023-09-19T04:05:18;12.85;;;7.55;;
54539;SDS011;40438;52.992;18.604;2023-09-19T04:07:45;12.40;;;8.10;;
54539;SDS011;40438;52.992;18.604;2023-09-19T04:10:11;13.40;;;7.63;;
54539;SDS011;40438;52.992;18.604;2023-09-19T04:12:37;13.23;;;8.13;;
54539;SDS011;40438;52.992;18.604;2023-09-19T04:15:03;11.85;;;7.53;;
54539;SDS011;40438;52.992;18.604;2023-09-19T04:17:30;14.23;;;6.78;;
54539;SDS011;40438;52.992;18.604;2023-09-19T04:19:58;11.32;;;6.22;;
54539;SDS011;40438;52.992;18.604;2023-09-19T04:22:24;13.07;;;6.25;;
54539;SDS011;40438;52.992;18.604;2023-09-19T04:24:50;12.98;;;7.18;;
54539;SDS011;40438;52.992;18.604;2023-09-19T04:27:16;14.27;;;6.63;;
54539;SDS011;40438;52.992;18.604;2023-09-19T04:29:42;14.38;;;6.53;;
54539;SDS011;40438;52.992;18.604;2023-09-19T04:32:08;12.48;;;6.00;;
54539;SDS011;40438;52.992;18.604;2023-09-19T04:34:34;10.98;;;6.97;;
54539;SDS011;40438;52.992;18.604;2023-09-19T04:37:02;16.73;;;6.78;;
54539;SDS011;40438;52.992;18.604;2023-09-19T04:39:28;10.00;;;6.63;;
54539;SDS011;40438;52.992;18.604;2023-09-19T04:41:53;12.98;;;6.45;;
54539;SDS011;40438;52.992;18.604;2023-09-19T04:44:19;10.10;;;6.28;;
54539;SDS011;40438;52.992;18.604;2023-09-19T04:46:45;10.63;;;6.28;;
54539;SDS011;40438;52.992;18.604;2023-09-19T04:49:11;11.10;;;5.70;;
54539;SDS011;40438;52.992;18.604;2023-09-19T04:51:37;12.98;;;6.30;;
54539;SDS011;40438;52.992;18.604;2023-09-19T04:54:04;12.40;;;5.82;;
54539;SDS011;40438;52.992;18.604;2023-09-19T04:56:30;10.25;;;6.25;;
54539;SDS011;40438;52.992;18.604;2023-09-19T04:58:56;11.85;;;5.50;;
54539;SDS011;40438;52.992;18.604;2023-09-19T05:01:21;10.52;;;5.82;;
54539;SDS011;40438;52.992;18.604;2023-09-19T05:03:47;9.10;;;5.00;;
54539;SDS011;40438;52.992;18.604;2023-09-19T05:06:13;9.65;;;5.80;;
54539;SDS011;40438;52.992;18.604;2023-09-19T05:08:39;10.32;;;5.35;;
54539;SDS011;40438;52.992;18.604;2023-09-19T05:11:06;8.98;;;5.18;;
54539;SDS011;40438;52.992;18.604;2023-09-19T05:13:32;10.25;;;4.82;;
54539;SDS011;40438;52.992;18.604;2023-09-19T05:15:59;9.20;;;4.50;;
54539;SDS011;40438;52.992;18.604;2023-09-19T05:18:25;7.13;;;4.32;;
54539;SDS011;40438;52.992;18.604;2023-09-19T05:20:51;8.48;;;4.78;;
54539;SDS011;40438;52.992;18.604;2023-09-19T05:23:17;9.15;;;4.90;;
54539;SDS011;40438;52.992;18.604;2023-09-19T05:25:42;9.85;;;5.28;;
54539;SDS011;40438;52.992;18.604;2023-09-19T05:28:10;9.20;;;4.78;;
54539;SDS011;40438;52.992;18.604;2023-09-19T05:30:36;11.65;;;4.38;;
54539;SDS011;40438;52.992;18.604;2023-09-19T05:33:02;12.77;;;6.28;;
54539;SDS011;40438;52.992;18.604;2023-09-19T05:35:28;10.57;;;4.80;;
54539;SDS011;40438;52.992;18.604;2023-09-19T05:37:54;10.93;;;4.60;;
54539;SDS011;40438;52.992;18.604;2023-09-19T05:40:20;8.00;;;4.80;;
54539;SDS011;40438;52.992;18.604;2023-09-19T05:42:46;7.05;;;4.65;;
54539;SDS011;40438;52.992;18.604;2023-09-19T05:45:13;7.15;;;4.30;;
54539;SDS011;40438;52.992;18.604;2023-09-19T05:47:39;9.85;;;3.92;;
54539;SDS011;40438;52.992;18.604;2023-09-19T05:50:05;9.38;;;4.03;;
54539;SDS011;40438;52.992;18.604;2023-09-19T05:52:31;6.93;;;3.38;;
54539;SDS011;40438;52.992;18.604;2023-09-19T05:54:57;7.43;;;3.50;;
54539;SDS011;40438;52.992;18.604;2023-09-19T05:57:23;9.75;;;3.67;;
54539;SDS011;40438;52.992;18.604;2023-09-19T05:59:49;9.57;;;4.30;;
54539;SDS011;40438;52.992;18.604;2023-09-19T06:02:16;7.57;;;4.03;;
54539;SDS011;40438;52.992;18.604;2023-09-19T06:04:41;6.68;;;3.90;;
54539;SDS011;40438;52.992;18.604;2023-09-19T06:07:07;6.03;;;3.78;;
54539;SDS011;40438;52.992;18.604;2023-09-19T06:09:33;6.45;;;3.90;;
54539;SDS011;40438;52.992;18.604;2023-09-19T06:11:59;9.93;;;3.97;;
54539;SDS011;40438;52.992;18.604;2023-09-19T06:14:24;7.55;;;3.50;;
54539;SDS011;40438;52.992;18.604;2023-09-19T06:16:50;10.57;;;4.47;;
54539;SDS011;40438;52.992;18.604;2023-09-19T06:19:17;8.32;;;3.60;;
54539;SDS011;40438;52.992;18.604;2023-09-19T06:21:43;7.05;;;3.42;;
54539;SDS011;40438;52.992;18.604;2023-09-19T06:24:09;6.70;;;3.80;;
54539;SDS011;40438;52.992;18.604;2023-09-19T06:26:35;7.38;;;3.55;;
54539;SDS011;40438;52.992;18.604;2023-09-19T06:29:01;7.85;;;4.15;;
54539;SDS011;40438;52.992;18.604;2023-09-19T06:31:26;8.80;;;3.60;;
54539;SDS011;40438;52.992;18.604;2023-09-19T06:33:52;8.40;;;3.72;;
54539;SDS011;40438;52.992;18.604;2023-09-19T06:36:19;6.70;;;3.88;;
54539;SDS011;40438;52.992;18.604;2023-09-19T06:38:45;5.90;;;3.80;;
54539;SDS011;40438;52.992;18.604;2023-09-19T06:41:11;9.52;;;3.60;;
54539;SDS011;40438;52.992;18.604;2023-09-19T06:43:37;6.05;;;4.00;;
54539;SDS011;40438;52.992;18.604;2023-09-19T06:46:02;10.63;;;3.78;;
54539;SDS011;40438;52.992;18.604;2023-09-19T06:48:28;6.28;;;3.55;;
54539;SDS011;40438;52.992;18.604;2023-09-19T06:50:54;4.47;;;3.33;;
54539;SDS011;40438;52.992;18.604;2023-09-19T06:53:21;5.72;;;3.50;;
54539;SDS011;40438;52.992;18.604;2023-09-19T06:55:47;4.07;;;3.00;;
54539;SDS011;40438;52.992;18.604;2023-09-19T06:58:13;6.63;;;3.35;;
54539;SDS011;40438;52.992;18.604;2023-09-19T07:00:39;5.15;;;3.58;;
54539;SDS011;40438;52.992;18.604;2023-09-19T07:03:05;9.77;;;3.25;;
54539;SDS011;40438;52.992;18.604;2023-09-19T07:05:33;5.55;;;3.45;;
54539;SDS011;40438;52.992;18.604;2023-09-19T07:07:59;6.60;;;3.35;;
54539;SDS011;40438;52.992;18.604;2023-09-19T07:10:27;7.07;;;3.50;;
54539;SDS011;40438;52.992;18.604;2023-09-19T07:12:54;5.20;;;3.45;;
54539;SDS011;40438;52.992;18.604;2023-09-19T07:15:21;5.18;;;3.38;;
54539;SDS011;40438;52.992;18.604;2023-09-19T07:17:46;7.13;;;3.17;;
54539;SDS011;40438;52.992;18.604;2023-09-19T07:20:12;7.10;;;3.53;;
54539;SDS011;40438;52.992;18.604;2023-09-19T07:22:38;10.40;;;3.70;;
54539;SDS011;40438;52.992;18.604;2023-09-19T07:25:04;4.43;;;3.38;;
54539;SDS011;40438;52.992;18.604;2023-09-19T07:27:32;4.85;;;3.53;;
54539;SDS011;40438;52.992;18.604;2023-09-19T07:29:57;6.90;;;3.88;;
54539;SDS011;40438;52.992;18.604;2023-09-19T07:32:23;5.88;;;3.85;;
54539;SDS011;40438;52.992;18.604;2023-09-19T07:34:49;5.63;;;3.80;;
54539;SDS011;40438;52.992;18.604;2023-09-19T07:37:15;5.38;;;4.05;;
54539;SDS011;40438;52.992;18.604;2023-09-19T07:39:40;4.75;;;3.55;;
54539;SDS011;40438;52.992;18.604;2023-09-19T07:42:06;6.18;;;3.63;;
54539;SDS011;40438;52.992;18.604;2023-09-19T07:44:34;6.55;;;4.10;;
54539;SDS011;40438;52.992;18.604;2023-09-19T07:47:00;6.88;;;3.95;;
54539;SDS011;40438;52.992;18.604;2023-09-19T07:49:26;7.60;;;3.83;;
54539;SDS011;40438;52.992;18.604;2023-09-19T07:51:52;6.78;;;3.83;;
54539;SDS011;40438;52.992;18.604;2023-09-19T07:54:17;8.65;;;3.72;;
54539;SDS011;40438;52.992;18.604;2023-09-19T07:56:43;4.93;;;3.90;;
54539;SDS011;40438;52.992;18.604;2023-09-19T07:59:09;5.25;;;3.40;;
54539;SDS011;40438;52.992;18.604;2023-09-19T08:01:36;7.60;;;3.70;;
54539;SDS011;40438;52.992;18.604;2023-09-19T08:04:02;7.50;;;3.95;;
54539;SDS011;40438;52.992;18.604;2023-09-19T08:06:28;8.23;;;4.00;;
54539;SDS011;40438;52.992;18.604;2023-09-19T08:08:54;7.07;;;3.67;;
54539;SDS011;40438;52.992;18.604;2023-09-19T08:11:19;7.70;;;4.28;;
54539;SDS011;40438;52.992;18.604;2023-09-19T08:13:45;6.97;;;4.18;;
54539;SDS011;40438;52.992;18.604;2023-09-19T08:16:11;9.00;;;3.90;;
54539;SDS011;40438;52.992;18.604;2023-09-19T08:18:38;5.85;;;3.85;;
54539;SDS011;40438;52.992;18.604;2023-09-19T08:21:04;8.23;;;4.32;;
54539;SDS011;40438;52.992;18.604;2023-09-19T08:23:30;12.65;;;4.78;;
54539;SDS011;40438;52.992;18.604;2023-09-19T08:25:56;8.05;;;3.75;;
54539;SDS011;40438;52.992;18.604;2023-09-19T08:28:22;6.78;;;4.00;;
54539;SDS011;40438;52.992;18.604;2023-09-19T08:30:47;6.80;;;3.90;;
54539;SDS011;40438;52.992;18.604;2023-09-19T08:33:13;6.75;;;4.35;;
54539;SDS011;40438;52.992;18.604;2023-09-19T08:35:40;6.57;;;4.47;;
54539;SDS011;40438;52.992;18.604;2023-09-19T08:38:06;5.30;;;4.40;;
54539;SDS011;40438;52.992;18.604;2023-09-19T08:40:32;9.77;;;4.80;;
54539;SDS011;40438;52.992;18.604;2023-09-19T08:42:58;9.85;;;4.50;;
54539;SDS011;40438;52.992;18.604;2023-09-19T08:45:24;8.10;;;4.65;;
54539;SDS011;40438;52.992;18.604;2023-09-19T08:47:53;6.45;;;4.85;;
54539;SDS011;40438;52.992;18.604;2023-09-19T08:50:26;7.07;;;4.85;;
54539;SDS011;40438;52.992;18.604;2023-09-19T08:52:55;5.90;;;4.43;;
54539;SDS011;40438;52.992;18.604;2023-09-19T08:55:27;6.83;;;4.93;;
54539;SDS011;40438;52.992;18.604;2023-09-19T08:57:56;5.88;;;4.47;;
54539;SDS011;40438;52.992;18.604;2023-09-19T09:00:25;7.45;;;5.07;;
54539;SDS011;40438;52.992;18.604;2023-09-19T09:02:52;7.75;;;5.13;;
54539;SDS011;40438;52.992;18.604;2023-09-19T09:05:19;8.35;;;4.90;;
54539;SDS011;40438;52.992;18.604;2023-09-19T09:07:45;5.63;;;4.57;;
54539;SDS011;40438;52.992;18.604;2023-09-19T09:10:13;9.48;;;5.50;;
54539;SDS011;40438;52.992;18.604;2023-09-19T09:12:38;6.50;;;4.93;;
54539;SDS011;40438;52.992;18.604;2023-09-19T09:15:05;6.47;;;4.35;;
54539;SDS011;40438;52.992;18.604;2023-09-19T09:17:32;6.75;;;4.68;;
54539;SDS011;40438;52.992;18.604;2023-09-19T09:19:58;6.75;;;4.63;;
54539;SDS011;40438;52.992;18.604;2023-09-19T09:22:23;6.53;;;4.80;;
54539;SDS011;40438;52.992;18.604;2023-09-19T09:24:52;6.55;;;4.70;;
54539;SDS011;40438;52.992;18.604;2023-09-19T09:27:20;5.93;;;4.53;;
54539;SDS011;40438;52.992;18.604;2023-09-19T09:29:47;8.90;;;4.72;;
54539;SDS011;40438;52.992;18.604;2023-09-19T09:32:17;9.68;;;4.82;;
54539;SDS011;40438;52.992;18.604;2023-09-19T09:34:47;10.05;;;4.78;;
54539;SDS011;40438;52.992;18.604;2023-09-19T09:37:15;9.52;;;4.38;;
54539;SDS011;40438;52.992;18.604;2023-09-19T09:39:42;6.68;;;4.15;;
54539;SDS011;40438;52.992;18.604;2023-09-19T09:42:15;4.50;;;3.83;;
54539;SDS011;40438;52.992;18.604;2023-09-19T09:45:02;5.27;;;3.67;;
54539;SDS011;40438;52.992;18.604;2023-09-19T09:47:41;5.75;;;3.72;;
54539;SDS011;40438;52.992;18.604;2023-09-19T09:50:07;7.60;;;3.40;;
54539;SDS011;40438;52.992;18.604;2023-09-19T09:52:43;5.90;;;3.20;;
54539;SDS011;40438;52.992;18.604;2023-09-19T09:55:10;4.38;;;2.60;;
54539;SDS011;40438;52.992;18.604;2023-09-19T09:57:37;5.22;;;3.25;;
54539;SDS011;40438;52.992;18.604;2023-09-19T10:00:03;3.25;;;2.85;;
54539;SDS011;40438;52.992;18.604;2023-09-19T10:02:37;5.07;;;2.60;;
54539;SDS011;40438;52.992;18.604;2023-09-19T10:05:10;9.48;;;3.03;;
54539;SDS011;40438;52.992;18.604;2023-09-19T10:07:37;6.10;;;2.95;;
54539;SDS011;40438;52.992;18.604;2023-09-19T10:10:04;2.92;;;2.47;;
54539;SDS011;40438;52.992;18.604;2023-09-19T10:12:30;6.47;;;2.95;;
54539;SDS011;40438;52.992;18.604;2023-09-19T10:14:58;2.78;;;2.15;;
54539;SDS011;40438;52.992;18.604;2023-09-19T10:17:27;2.83;;;2.55;;
54539;SDS011;40438;52.992;18.604;2023-09-19T10:19:56;3.10;;;2.60;;
54539;SDS011;40438;52.992;18.604;2023-09-19T10:22:22;3.53;;;2.20;;
54539;SDS011;40438;52.992;18.604;2023-09-19T10:24:48;3.15;;;2.20;;
54539;SDS011;40438;52.992;18.604;2023-09-19T10:27:15;5.32;;;2.60;;
54539;SDS011;40438;52.992;18.604;2023-09-19T10:29:41;4.35;;;2.72;;
54539;SDS011;40438;52.992;18.604;2023-09-19T10:32:10;3.00;;;2.28;;
54539;SDS011;40438;52.992;18.604;2023-09-19T10:34:39;5.45;;;2.15;;
54539;SDS011;40438;52.992;18.604;2023-09-19T10:37:07;3.67;;;2.70;;
54539;SDS011;40438;52.992;18.604;2023-09-19T10:39:34;5.22;;;2.30;;
54539;SDS011;40438;52.992;18.604;2023-09-19T10:42:02;3.13;;;1.90;;
54539;SDS011;40438;52.992;18.604;2023-09-19T10:44:28;3.55;;;2.58;;
54539;SDS011;40438;52.992;18.604;2023-09-19T10:46:57;2.72;;;2.03;;
54539;SDS011;40438;52.992;18.604;2023-09-19T10:49:25;4.07;;;2.08;;
54539;SDS011;40438;52.992;18.604;2023-09-19T10:51:51;6.72;;;2.00;;
54539;SDS011;40438;52.992;18.604;2023-09-19T10:54:19;3.45;;;2.08;;
54539;SDS011;40438;52.992;18.604;2023-09-19T10:56:48;2.30;;;2.10;;
54539;SDS011;40438;52.992;18.604;2023-09-19T10:59:15;2.72;;;2.17;;
54539;SDS011;40438;52.992;18.604;2023-09-19T11:01:42;3.15;;;2.22;;
54539;SDS011;40438;52.992;18.604;2023-09-19T11:04:21;2.78;;;2.05;;
54539;SDS011;40438;52.992;18.604;2023-09-19T11:07:00;4.28;;;1.92;;
54539;SDS011;40438;52.992;18.604;2023-09-19T11:09:41;4.57;;;1.92;;
54539;SDS011;40438;52.992;18.604;2023-09-19T11:12:08;3.95;;;2.28;;
54539;SDS011;40438;52.992;18.604;2023-09-19T11:14:41;2.42;;;2.20;;
54539;SDS011;40438;52.992;18.604;2023-09-19T11:20:22;3.45;;;1.90;;
54539;SDS011;40438;52.992;18.604;2023-09-19T11:25:47;3.30;;;1.90;;
54539;SDS011;40438;52.992;18.604;2023-09-19T11:28:28;1.83;;;1.52;;
54539;SDS011;40438;52.992;18.604;2023-09-19T11:36:58;2.80;;;1.80;;
54539;SDS011;40438;52.992;18.604;2023-09-19T11:39:26;4.00;;;1.40;;
54539;SDS011;40438;52.992;18.604;2023-09-19T11:41:51;2.75;;;1.40;;
54539;SDS011;40438;52.992;18.604;2023-09-19T11:44:33;4.00;;;1.30;;
54539;SDS011;40438;52.992;18.604;2023-09-19T11:47:00;5.45;;;1.60;;
54539;SDS011;40438;52.992;18.604;2023-09-19T11:49:28;3.72;;;1.55;;
54539;SDS011;40438;52.992;18.604;2023-09-19T11:51:55;3.03;;;1.20;;
54539;SDS011;40438;52.992;18.604;2023-09-19T11:54:21;1.75;;;1.25;;
54539;SDS011;40438;52.992;18.604;2023-09-19T11:56:49;1.90;;;1.20;;
54539;SDS011;40438;52.992;18.604;2023-09-19T11:59:19;2.08;;;1.13;;
54539;SDS011;40438;52.992;18.604;2023-09-19T12:01:50;2.30;;;1.40;;
54539;SDS011;40438;52.992;18.604;2023-09-19T12:04:20;3.60;;;1.45;;
54539;SDS011;40438;52.992;18.604;2023-09-19T12:06:59;7.03;;;1.75;;
54539;SDS011;40438;52.992;18.604;2023-09-19T12:09:25;2.13;;;1.20;;
54539;SDS011;40438;52.992;18.604;2023-09-19T12:11:52;3.88;;;1.63;;
54539;SDS011;40438;52.992;18.604;2023-09-19T12:14:21;4.75;;;1.33;;
54539;SDS011;40438;52.992;18.604;2023-09-19T12:16:50;4.07;;;1.60;;
54539;SDS011;40438;52.992;18.604;2023-09-19T12:19:17;2.72;;;1.50;;
54539;SDS011;40438;52.992;18.604;2023-09-19T12:21:43;2.83;;;1.60;;
54539;SDS011;40438;52.992;18.604;2023-09-19T12:24:11;5.75;;;1.52;;
54539;SDS011;40438;52.992;18.604;2023-09-19T12:26:38;3.88;;;1.67;;
54539;SDS011;40438;52.992;18.604;2023-09-19T12:29:06;3.72;;;1.30;;
54539;SDS011;40438;52.992;18.604;2023-09-19T12:31:37;2.08;;;1.50;;
54539;SDS011;40438;52.992;18.604;2023-09-19T12:34:12;4.95;;;1.60;;
54539;SDS011;40438;52.992;18.604;2023-09-19T12:36:41;3.15;;;1.33;;
54539;SDS011;40438;52.992;18.604;2023-09-19T12:39:07;3.63;;;2.15;;
54539;SDS011;40438;52.992;18.604;2023-09-19T12:41:33;3.38;;;1.50;;
54539;SDS011;40438;52.992;18.604;2023-09-19T12:43:59;3.58;;;2.03;;
54539;SDS011;40438;52.992;18.604;2023-09-19T12:46:26;3.30;;;1.65;;
54539;SDS011;40438;52.992;18.604;2023-09-19T12:51:42;2.67;;;1.58;;
54539;SDS011;40438;52.992;18.604;2023-09-19T12:54:07;3.35;;;1.42;;
54539;SDS011;40438;52.992;18.604;2023-09-19T12:56:39;4.32;;;1.40;;
54539;SDS011;40438;52.992;18.604;2023-09-19T12:59:05;2.28;;;1.35;;
54539;SDS011;40438;52.992;18.604;2023-09-19T13:01:32;1.35;;;1.25;;
54539;SDS011;40438;52.992;18.604;2023-09-19T13:04:11;2.85;;;1.30;;
54539;SDS011;40438;52.992;18.604;2023-09-19T13:06:37;1.90;;;1.23;;
54539;SDS011;40438;52.992;18.604;2023-09-19T13:09:07;1.83;;;1.40;;
54539;SDS011;40438;52.992;18.604;2023-09-19T13:11:35;4.03;;;1.85;;
54539;SDS011;40438;52.992;18.604;2023-09-19T13:14:13;3.35;;;1.05;;
54539;SDS011;40438;52.992;18.604;2023-09-19T13:16:53;1.77;;;1.17;;
54539;SDS011;40438;52.992;18.604;2023-09-19T13:24:50;1.90;;;1.10;;
54539;SDS011;40438;52.992;18.604;2023-09-19T13:27:16;2.20;;;1.20;;
54539;SDS011;40438;52.992;18.604;2023-09-19T13:29:42;2.38;;;1.25;;
54539;SDS011;40438;52.992;18.604;2023-09-19T13:32:09;1.73;;;1.00;;
54539;SDS011;40438;52.992;18.604;2023-09-19T13:34:35;2.10;;;1.10;;
54539;SDS011;40438;52.992;18.604;2023-09-19T13:37:00;3.40;;;1.23;;
54539;SDS011;40438;52.992;18.604;2023-09-19T13:39:26;2.70;;;1.75;;
54539;SDS011;40438;52.992;18.604;2023-09-19T13:41:52;4.22;;;1.25;;
54539;SDS011;40438;52.992;18.604;2023-09-19T13:44:18;3.78;;;1.48;;
54539;SDS011;40438;52.992;18.604;2023-09-19T13:46:43;3.53;;;1.60;;
54539;SDS011;40438;52.992;18.604;2023-09-19T13:49:11;6.43;;;1.60;;
54539;SDS011;40438;52.992;18.604;2023-09-19T13:51:36;2.72;;;1.40;;
54539;SDS011;40438;52.992;18.604;2023-09-19T13:54:02;5.82;;;1.40;;
54539;SDS011;40438;52.992;18.604;2023-09-19T13:56:28;3.08;;;1.63;;
54539;SDS011;40438;52.992;18.604;2023-09-19T13:58:54;4.03;;;1.23;;
54539;SDS011;40438;52.992;18.604;2023-09-19T14:01:20;3.03;;;1.60;;
54539;SDS011;40438;52.992;18.604;2023-09-19T14:03:46;5.18;;;1.30;;
54539;SDS011;40438;52.992;18.604;2023-09-19T14:06:13;3.80;;;1.30;;
54539;SDS011;40438;52.992;18.604;2023-09-19T14:08:39;2.70;;;1.45;;
54539;SDS011;40438;52.992;18.604;2023-09-19T14:11:05;1.70;;;1.15;;
54539;SDS011;40438;52.992;18.604;2023-09-19T14:13:31;3.03;;;1.48;;
54539;SDS011;40438;52.992;18.604;2023-09-19T14:15:57;3.15;;;1.50;;
54539;SDS011;40438;52.992;18.604;2023-09-19T14:18:22;3.90;;;1.42;;
54539;SDS011;40438;52.992;18.604;2023-09-19T14:20:48;1.48;;;0.95;;
54539;SDS011;40438;52.992;18.604;2023-09-19T14:23:15;2.50;;;1.30;;
54539;SDS011;40438;52.992;18.604;2023-09-19T14:25:41;3.45;;;1.40;;
54539;SDS011;40438;52.992;18.604;2023-09-19T14:28:07;2.78;;;1.33;;
54539;SDS011;40438;52.992;18.604;2023-09-19T14:30:33;5.95;;;1.35;;
54539;SDS011;40438;52.992;18.604;2023-09-19T14:32:58;4.47;;;1.50;;
54539;SDS011;40438;52.992;18.604;2023-09-19T14:35:24;1.95;;;1.40;;
54539;SDS011;40438;52.992;18.604;2023-09-19T14:37:50;4.68;;;1.38;;
54539;SDS011;40438;52.992;18.604;2023-09-19T14:40:17;3.28;;;1.48;;
54539;SDS011;40438;52.992;18.604;2023-09-19T14:42:43;2.22;;;1.40;;
54539;SDS011;40438;52.992;18.604;2023-09-19T14:45:09;6.07;;;1.38;;
54539;SDS011;40438;52.992;18.604;2023-09-19T14:47:36;5.45;;;1.77;;